createdAt,value
2023-02-11T00:00:14.851Z,98879.34
2023-02-11T00:02:41.874Z,98877.38
2023-02-11T00:05:08.916Z,98878.53
2023-02-11T00:07:35.856Z,98883.22
2023-02-11T00:10:03.055Z,98872.75
2023-02-11T00:12:30.005Z,98877.31
2023-02-11T00:14:57.031Z,98877.91
2023-02-11T00:17:23.938Z,98883.16
2023-02-11T00:19:51.677Z,98880.56
2023-02-11T00:22:18.660Z,98887.28
2023-02-11T00:24:45.610Z,98874.50
2023-02-11T00:27:12.572Z,98878.88
2023-02-11T00:29:39.594Z,98883.59
2023-02-11T00:32:06.637Z,98883.72
2023-02-11T00:34:33.746Z,98883.78
2023-02-11T00:37:03.070Z,98874.47
2023-02-11T00:39:30.256Z,98868.06
2023-02-11T00:41:57.716Z,98874.03
2023-02-11T00:44:24.678Z,98867.66
2023-02-11T00:46:51.689Z,98883.56
2023-02-11T00:49:18.728Z,98875.72
2023-02-11T00:51:45.776Z,98886.94
2023-02-11T00:54:12.809Z,98875.13
2023-02-11T00:56:39.797Z,98871.78
2023-02-11T00:59:06.696Z,98861.59
2023-02-11T01:01:34.789Z,98867.97
2023-02-11T01:04:01.963Z,98869.41
2023-02-11T01:06:28.936Z,98871.69
2023-02-11T01:08:55.887Z,98868.44
2023-02-11T01:11:22.903Z,98870.50
2023-02-11T01:13:50.174Z,98870.91
2023-02-11T01:16:17.429Z,98868.19
2023-02-11T01:18:45.625Z,98868.56
2023-02-11T01:21:12.632Z,98872.06
2023-02-11T01:23:39.672Z,98865.03
2023-02-11T01:26:06.587Z,98858.91
2023-02-11T01:28:33.744Z,98858.31
2023-02-11T01:31:01.675Z,98863.16
2023-02-11T01:33:28.906Z,98856.41
2023-02-11T01:35:55.778Z,98860.47
2023-02-11T01:38:25.110Z,98862.66
2023-02-11T01:40:55.003Z,98850.56
2023-02-11T01:43:23.394Z,98845.69
2023-02-11T01:46:01.600Z,98842.13
2023-02-11T01:48:36.425Z,98839.56
2023-02-11T01:51:07.046Z,98831.06
2023-02-11T01:53:54.072Z,98835.44
2023-02-11T01:56:40.179Z,98827.59
2023-02-11T01:59:11.692Z,98825.38
2023-02-11T02:01:38.684Z,98817.97
2023-02-11T02:04:05.687Z,98812.19
2023-02-11T02:06:36.275Z,98814.34
2023-02-11T02:09:11.524Z,98817.41
2023-02-11T02:11:38.482Z,98797.56
2023-02-11T02:14:05.469Z,98806.19
2023-02-11T02:16:34.754Z,98797.97
2023-02-11T02:19:26.886Z,98790.03
2023-02-11T02:21:53.770Z,98786.53
2023-02-11T02:24:56.646Z,98786.53
2023-02-11T02:27:45.019Z,98779.53
2023-02-11T02:30:40.145Z,98781.47
2023-02-11T02:33:23.047Z,98776.88
2023-02-11T02:35:55.290Z,98766.75
2023-02-11T02:38:30.666Z,98765.34
2023-02-11T02:41:03.961Z,98762.47
2023-02-11T02:43:30.942Z,98750.94
2023-02-11T02:46:19.704Z,98752.41
2023-02-11T02:48:47.168Z,98751.47
2023-02-11T02:51:37.899Z,98751.25
2023-02-11T02:54:41.375Z,98753.59
2023-02-11T02:57:17.764Z,98754.25
2023-02-11T03:00:10.865Z,98756.22
2023-02-11T03:02:40.786Z,98748.63
2023-02-11T03:05:45.268Z,98760.47
2023-02-11T03:08:17.991Z,98755.22
2023-02-11T03:10:50.039Z,98763.84
2023-02-11T03:13:18.222Z,98755.13
2023-02-11T03:15:46.930Z,98763.41
2023-02-11T03:18:15.882Z,98765.22
2023-02-11T03:20:43.815Z,98765.94
2023-02-11T03:23:10.668Z,98774.31
2023-02-11T03:25:49.739Z,98768.38
2023-02-11T03:28:33.089Z,98776.13
2023-02-11T03:31:27.287Z,98774.03
2023-02-11T03:34:12.797Z,98777.00
2023-02-11T03:36:47.272Z,98768.84
2023-02-11T03:39:16.620Z,98771.75
2023-02-11T03:41:43.579Z,98765.34
2023-02-11T03:44:10.515Z,98776.19
2023-02-11T03:46:38.120Z,98781.59
2023-02-11T03:49:08.778Z,98786.31
2023-02-11T03:51:35.711Z,98794.75
2023-02-11T03:54:04.018Z,98794.28
2023-02-11T03:56:33.174Z,98796.47
2023-02-11T03:59:00.120Z,98809.03
2023-02-11T04:01:27.114Z,98800.94
2023-02-11T04:03:54.062Z,98794.56
2023-02-11T04:06:21.086Z,98793.13
2023-02-11T04:08:48.135Z,98802.56
2023-02-11T04:11:15.087Z,98794.47
2023-02-11T04:13:42.021Z,98803.38
2023-02-11T04:16:09.080Z,98802.53
2023-02-11T04:18:36.200Z,98803.41
2023-02-11T04:21:03.156Z,98796.00
2023-02-11T04:23:30.068Z,98791.81
2023-02-11T04:25:57.019Z,98788.19
2023-02-11T04:28:24.109Z,98784.72
2023-02-11T04:30:51.392Z,98776.00
2023-02-11T04:33:18.352Z,98776.53
2023-02-11T04:35:45.291Z,98772.22
2023-02-11T04:38:12.237Z,98761.47
2023-02-11T04:40:39.291Z,98760.53
2023-02-11T04:43:06.373Z,98764.00
2023-02-11T04:45:33.883Z,98768.75
2023-02-11T04:48:03.084Z,98771.63
2023-02-11T04:50:30.007Z,98772.28
2023-02-11T04:52:57.021Z,98771.81
2023-02-11T04:55:23.907Z,98770.44
2023-02-11T04:57:50.843Z,98757.31
2023-02-11T05:00:17.865Z,98764.72
2023-02-11T05:02:44.792Z,98754.81
2023-02-11T05:05:11.737Z,98742.91
2023-02-11T05:07:38.655Z,98741.19
2023-02-11T05:10:05.838Z,98741.63
2023-02-11T05:12:32.813Z,98747.53
2023-02-11T05:14:59.737Z,98742.34
2023-02-11T05:17:26.723Z,98750.38
2023-02-11T05:19:53.684Z,98749.84
2023-02-11T05:22:22.055Z,98754.63
2023-02-11T05:24:49.571Z,98751.50
2023-02-11T05:27:16.549Z,98740.75
2023-02-11T05:29:43.441Z,98734.16
2023-02-11T05:32:10.441Z,98730.72
2023-02-11T05:34:37.696Z,98735.75
2023-02-11T05:37:04.677Z,98742.97
2023-02-11T05:39:31.631Z,98746.47
2023-02-11T05:41:58.670Z,98737.69
2023-02-11T05:44:25.620Z,98747.50
2023-02-11T05:46:52.608Z,98750.22
2023-02-11T05:49:19.558Z,98760.47
2023-02-11T05:51:46.600Z,98755.59
2023-02-11T05:54:13.894Z,98765.78
2023-02-11T05:56:43.123Z,98762.66
2023-02-11T05:59:13.588Z,98754.94
2023-02-11T06:01:40.650Z,98754.72
2023-02-11T06:04:07.589Z,98747.19
2023-02-11T06:06:34.526Z,98734.25
2023-02-11T06:09:01.538Z,98731.97
2023-02-11T06:11:28.506Z,98724.53
2023-02-11T06:13:55.517Z,98730.91
2023-02-11T06:16:22.579Z,98735.59
2023-02-11T06:18:49.518Z,98741.00
2023-02-11T06:21:16.434Z,98733.59
2023-02-11T06:23:43.745Z,98738.88
2023-02-11T06:26:17.500Z,98747.59
2023-02-11T06:28:44.615Z,98735.94
2023-02-11T06:31:12.102Z,98739.53
2023-02-11T06:33:39.295Z,98743.78
2023-02-11T06:36:16.742Z,98755.03
2023-02-11T06:38:43.735Z,98750.66
2023-02-11T06:41:13.874Z,98733.91
2023-02-11T06:43:40.998Z,98735.09
2023-02-11T06:46:08.055Z,98720.81
2023-02-11T06:48:35.074Z,98714.56
2023-02-11T06:51:06.202Z,98720.47
2023-02-11T06:53:35.875Z,98718.19
2023-02-11T06:56:07.418Z,98719.19
2023-02-11T06:58:34.207Z,98714.25
2023-02-11T07:01:06.785Z,98715.16
2023-02-11T07:03:36.174Z,98723.44
2023-02-11T07:06:05.524Z,98724.75
2023-02-11T07:08:35.960Z,98731.81
2023-02-11T07:11:11.874Z,98734.91
2023-02-11T07:13:38.909Z,98750.28
2023-02-11T07:16:07.383Z,98742.16
2023-02-11T07:18:34.427Z,98729.66
2023-02-11T07:21:05.689Z,98722.44
2023-02-11T07:23:33.152Z,98724.38
2023-02-11T07:26:09.838Z,98724.34
2023-02-11T07:28:37.514Z,98715.22
2023-02-11T07:31:12.316Z,98714.06
2023-02-11T07:33:39.337Z,98710.75
2023-02-11T07:36:07.133Z,98713.81
2023-02-11T07:38:34.378Z,98717.66
2023-02-11T07:41:02.289Z,98719.84
2023-02-11T07:43:29.457Z,98712.75
2023-02-11T07:45:56.580Z,98713.81
2023-02-11T07:48:23.522Z,98705.97
2023-02-11T07:50:50.631Z,98703.72
2023-02-11T07:53:17.612Z,98704.50
2023-02-11T07:55:44.662Z,98709.66
2023-02-11T07:58:11.536Z,98721.63
2023-02-11T08:00:38.534Z,98728.16
2023-02-11T08:03:07.891Z,98721.09
2023-02-11T08:05:38.240Z,98713.19
2023-02-11T08:08:05.226Z,98712.53
2023-02-11T08:10:32.285Z,98695.69
2023-02-11T08:12:59.215Z,98681.22
2023-02-11T08:15:26.259Z,98678.44
2023-02-11T08:17:53.163Z,98692.84
2023-02-11T08:20:20.246Z,98699.19
2023-02-11T08:22:47.188Z,98693.84
2023-02-11T08:25:14.147Z,98708.16
2023-02-11T08:27:41.102Z,98712.94
2023-02-11T08:30:08.491Z,98713.50
2023-02-11T08:32:35.633Z,98710.53
2023-02-11T08:35:02.579Z,98714.56
2023-02-11T08:37:32.008Z,98715.44
2023-02-11T08:39:59.923Z,98713.66
2023-02-11T08:42:26.918Z,98717.69
2023-02-11T08:44:53.811Z,98711.75
2023-02-11T08:47:22.734Z,98714.72
2023-02-11T08:49:49.800Z,98709.56
2023-02-11T08:52:16.704Z,98708.75
2023-02-11T08:54:43.612Z,98727.44
2023-02-11T08:57:10.625Z,98716.50
2023-02-11T08:59:40.079Z,98726.91
2023-02-11T09:02:07.645Z,98722.78
2023-02-11T09:04:34.629Z,98723.91
2023-02-11T09:07:01.540Z,98723.25
2023-02-11T09:09:28.561Z,98720.78
2023-02-11T09:11:57.375Z,98719.81
2023-02-11T09:14:24.761Z,98716.00
2023-02-11T09:16:51.979Z,98713.25
2023-02-11T09:19:19.238Z,98715.00
2023-02-11T09:21:46.697Z,98714.72
2023-02-11T09:24:13.708Z,98706.53
2023-02-11T09:26:41.391Z,98703.38
2023-02-11T09:29:08.386Z,98697.56
2023-02-11T09:31:35.380Z,98691.28
2023-02-11T09:34:04.464Z,98700.97
2023-02-11T09:36:33.097Z,98710.66
2023-02-11T09:39:01.077Z,98722.59
2023-02-11T09:42:00.027Z,98712.03
2023-02-11T09:44:28.538Z,98719.41
2023-02-11T09:47:03.052Z,98695.69
2023-02-11T09:49:36.503Z,98694.00
2023-02-11T09:52:06.693Z,98697.25
2023-02-11T09:54:59.264Z,98697.03
2023-02-11T09:57:33.488Z,98702.84
2023-02-11T10:00:01.641Z,98713.75
2023-02-11T10:03:04.817Z,98709.22
2023-02-11T10:05:59.223Z,98708.13
2023-02-11T10:08:26.129Z,98718.28
2023-02-11T10:10:57.825Z,98717.72
2023-02-11T10:14:04.257Z,98694.34
2023-02-11T10:16:58.037Z,98711.13
2023-02-11T10:19:27.837Z,98710.22
2023-02-11T10:22:15.700Z,98712.41
2023-02-11T10:24:42.840Z,98716.31
2023-02-11T10:27:16.778Z,98713.22
2023-02-11T10:29:53.574Z,98698.03
2023-02-11T10:32:40.268Z,98695.56
2023-02-11T10:35:18.878Z,98697.19
2023-02-11T10:37:45.836Z,98696.91
2023-02-11T10:40:20.516Z,98690.75
2023-02-11T10:42:55.468Z,98699.00
2023-02-11T10:45:43.846Z,98693.41
2023-02-11T10:48:39.356Z,98698.25
2023-02-11T10:51:29.128Z,98686.88
2023-02-11T10:54:05.396Z,98696.38
2023-02-11T10:56:36.586Z,98696.88
2023-02-11T10:59:23.607Z,98691.09
2023-02-11T11:01:53.229Z,98686.59
2023-02-11T11:04:37.392Z,98695.31
2023-02-11T11:07:22.473Z,98696.63
2023-02-11T11:09:49.363Z,98700.03
2023-02-11T11:12:57.588Z,98690.38
2023-02-11T11:15:26.529Z,98692.16
2023-02-11T11:18:20.910Z,98694.31
2023-02-11T11:20:56.171Z,98688.81
2023-02-11T11:23:24.523Z,98683.06
2023-02-11T11:26:11.374Z,98678.66
2023-02-11T11:28:50.187Z,98671.84
2023-02-11T11:31:23.717Z,98674.03
2023-02-11T11:33:51.627Z,98667.91
2023-02-11T11:36:21.479Z,98666.09
2023-02-11T11:39:02.398Z,98665.13
2023-02-11T11:41:31.283Z,98663.44
2023-02-11T11:44:25.849Z,98655.91
2023-02-11T11:47:37.396Z,98644.91
2023-02-11T11:50:27.497Z,98649.06
2023-02-11T11:53:04.561Z,98640.75
2023-02-11T11:55:39.214Z,98629.75
2023-02-11T11:58:09.662Z,98632.84
2023-02-11T12:00:58.313Z,98645.22
2023-02-11T12:03:32.642Z,98645.53
2023-02-11T12:06:14.570Z,98650.78
2023-02-11T12:08:55.657Z,98642.31
2023-02-11T12:11:44.336Z,98656.66
2023-02-11T12:14:33.632Z,98649.19
2023-02-11T12:17:11.454Z,98642.66
2023-02-11T12:19:41.337Z,98631.59
2023-02-11T12:22:36.405Z,98628.91
2023-02-11T12:25:21.574Z,98632.94
2023-02-11T12:28:14.549Z,98631.81
2023-02-11T12:31:00.072Z,98623.97
2023-02-11T12:33:44.800Z,98623.03
2023-02-11T12:36:24.332Z,98619.19
2023-02-11T12:38:57.112Z,98615.41
2023-02-11T12:41:56.616Z,98607.63
2023-02-11T12:44:51.842Z,98599.41
2023-02-11T12:47:25.684Z,98607.63
2023-02-11T12:49:55.232Z,98604.94
2023-02-11T12:52:51.121Z,98593.94
2023-02-11T12:55:28.440Z,98605.72
2023-02-11T12:57:56.940Z,98606.94
2023-02-11T13:00:25.622Z,98605.41
2023-02-11T13:03:11.302Z,98593.84
2023-02-11T13:05:41.727Z,98598.34
2023-02-11T13:08:17.092Z,98591.63
2023-02-11T13:10:50.995Z,98592.78
2023-02-11T13:13:39.440Z,98588.50
2023-02-11T13:16:08.150Z,98582.66
2023-02-11T13:18:49.705Z,98584.69
2023-02-11T13:21:16.603Z,98582.44
2023-02-11T13:24:02.917Z,98584.59
2023-02-11T13:26:43.812Z,98580.59
2023-02-11T13:29:34.763Z,98579.22
2023-02-11T13:32:10.636Z,98579.09
2023-02-11T13:34:43.699Z,98591.38
2023-02-11T13:37:23.356Z,98585.22
2023-02-11T13:40:01.511Z,98591.72
2023-02-11T13:42:29.305Z,98582.06
2023-02-11T13:44:56.254Z,98585.09
2023-02-11T13:47:33.414Z,98596.28
2023-02-11T13:50:00.861Z,98594.25
2023-02-11T13:52:30.435Z,98582.25
2023-02-11T13:55:02.061Z,98591.25
2023-02-11T13:57:32.294Z,98590.63
2023-02-11T14:00:00.990Z,98593.50
2023-02-11T14:02:54.212Z,98598.75
2023-02-11T14:05:48.657Z,98595.88
2023-02-11T14:08:37.649Z,98588.00
2023-02-11T14:11:10.962Z,98586.03
2023-02-11T14:14:16.415Z,98582.75
2023-02-11T14:16:58.426Z,98584.47
2023-02-11T14:19:37.926Z,98579.84
2023-02-11T14:22:18.416Z,98586.75
2023-02-11T14:24:53.360Z,98577.63
2023-02-11T14:27:42.190Z,98576.31
2023-02-11T14:30:15.112Z,98574.91
2023-02-11T14:33:11.465Z,98571.94
2023-02-11T14:35:50.482Z,98569.47
2023-02-11T14:38:17.357Z,98566.50
2023-02-11T14:40:50.233Z,98563.16
2023-02-11T14:43:20.374Z,98579.19
2023-02-11T14:45:50.661Z,98576.31
2023-02-11T14:48:18.848Z,98584.03
2023-02-11T14:50:48.622Z,98590.31
2023-02-11T14:53:21.608Z,98602.81
2023-02-11T14:55:52.594Z,98603.59
2023-02-11T14:58:19.553Z,98605.31
2023-02-11T15:00:57.378Z,98594.13
2023-02-11T15:03:29.363Z,98593.19
2023-02-11T15:06:19.776Z,98598.75
2023-02-11T15:09:01.035Z,98604.81
2023-02-11T15:11:30.422Z,98594.44
2023-02-11T15:13:57.680Z,98586.59
2023-02-11T15:16:25.630Z,98591.38
2023-02-11T15:18:58.578Z,98584.84
2023-02-11T15:21:30.289Z,98582.75
2023-02-11T15:24:21.006Z,98579.16
2023-02-11T15:27:03.905Z,98582.44
2023-02-11T15:29:38.479Z,98573.56
2023-02-11T15:32:15.308Z,98577.44
2023-02-11T15:34:43.343Z,98580.41
2023-02-11T15:37:13.949Z,98582.97
2023-02-11T15:39:41.619Z,98586.31
2023-02-11T15:42:28.363Z,98595.47
2023-02-11T15:45:08.621Z,98603.19
2023-02-11T15:47:35.657Z,98603.97
2023-02-11T15:50:02.669Z,98609.69
2023-02-11T15:52:29.621Z,98616.19
2023-02-11T15:54:56.860Z,98614.50
2023-02-11T15:57:23.850Z,98622.56
2023-02-11T15:59:54.666Z,98614.13
2023-02-11T16:02:31.678Z,98616.63
2023-02-11T16:05:06.278Z,98615.31
2023-02-11T16:07:47.391Z,98612.59
2023-02-11T16:10:21.580Z,98605.28
2023-02-11T16:12:56.122Z,98600.78
2023-02-11T16:15:38.284Z,98607.31
2023-02-11T16:18:13.708Z,98613.69
2023-02-11T16:20:40.674Z,98626.31
2023-02-11T16:23:07.731Z,98631.00
2023-02-11T16:25:35.209Z,98629.94
2023-02-11T16:28:02.395Z,98631.31
2023-02-11T16:30:37.720Z,98629.78
2023-02-11T16:33:05.597Z,98628.69
2023-02-11T16:35:32.647Z,98637.53
2023-02-11T16:37:59.597Z,98637.94
2023-02-11T16:40:26.601Z,98646.47
2023-02-11T16:42:53.696Z,98646.72
2023-02-11T16:45:20.944Z,98648.47
2023-02-11T16:47:48.047Z,98648.19
2023-02-11T16:50:22.637Z,98646.03
2023-02-11T16:52:49.829Z,98648.47
2023-02-11T16:55:16.818Z,98649.16
2023-02-11T16:57:43.770Z,98655.91
2023-02-11T17:00:11.612Z,98667.53
2023-02-11T17:02:38.555Z,98670.19
2023-02-11T17:05:07.694Z,98673.88
2023-02-11T17:07:34.639Z,98681.22
2023-02-11T17:10:02.246Z,98676.03
2023-02-11T17:12:29.205Z,98675.50
2023-02-11T17:14:56.275Z,98671.81
2023-02-11T17:17:23.920Z,98673.97
2023-02-11T17:19:51.455Z,98677.78
2023-02-11T17:22:18.818Z,98680.47
2023-02-11T17:24:45.859Z,98675.91
2023-02-11T17:27:12.910Z,98684.97
2023-02-11T17:29:39.851Z,98687.06
2023-02-11T17:32:06.870Z,98689.31
2023-02-11T17:34:33.846Z,98690.38
2023-02-11T17:37:03.183Z,98696.69
2023-02-11T17:39:30.133Z,98697.94
2023-02-11T17:41:57.131Z,98697.31
2023-02-11T17:44:24.041Z,98705.72
2023-02-11T17:46:51.066Z,98696.81
2023-02-11T17:49:18.005Z,98703.41
2023-02-11T17:51:45.162Z,98705.19
2023-02-11T17:54:13.726Z,98710.56
2023-02-11T17:56:41.107Z,98705.00
2023-02-11T17:59:08.650Z,98703.78
2023-02-11T18:01:36.435Z,98706.22
2023-02-11T18:04:03.441Z,98703.78
2023-02-11T18:06:30.428Z,98699.56
2023-02-11T18:08:59.767Z,98700.63
2023-02-11T18:11:27.942Z,98703.50
2023-02-11T18:13:55.129Z,98705.16
2023-02-11T18:16:23.021Z,98707.47
2023-02-11T18:18:51.226Z,98703.28
2023-02-11T18:21:19.719Z,98702.25
2023-02-11T18:23:47.164Z,98706.94
2023-02-11T18:26:14.614Z,98715.72
2023-02-11T18:28:44.523Z,98717.13
2023-02-11T18:31:13.945Z,98717.75
2023-02-11T18:33:41.108Z,98716.94
2023-02-11T18:36:11.816Z,98726.56
2023-02-11T18:38:39.247Z,98723.28
2023-02-11T18:41:07.613Z,98726.53
2023-02-11T18:43:34.954Z,98733.75
2023-02-11T18:46:02.599Z,98724.38
2023-02-11T18:48:29.668Z,98725.06
2023-02-11T18:50:56.627Z,98714.66
2023-02-11T18:53:24.724Z,98718.25
2023-02-11T18:55:52.559Z,98726.53
2023-02-11T18:58:21.449Z,98729.78
2023-02-11T19:00:49.419Z,98719.97
2023-02-11T19:03:16.902Z,98723.00
2023-02-11T19:05:48.513Z,98722.09
2023-02-11T19:08:16.001Z,98719.19
2023-02-11T19:10:44.465Z,98724.66
2023-02-11T19:13:12.057Z,98722.91
2023-02-11T19:15:42.640Z,98716.91
2023-02-11T19:18:09.836Z,98725.03
2023-02-11T19:20:39.523Z,98722.88
2023-02-11T19:23:07.094Z,98722.88
2023-02-11T19:25:34.627Z,98727.56
2023-02-11T19:28:01.653Z,98728.81
2023-02-11T19:30:28.805Z,98726.16
2023-02-11T19:32:57.328Z,98732.25
2023-02-11T19:35:24.829Z,98735.88
2023-02-11T19:37:51.847Z,98738.16
2023-02-11T19:40:19.289Z,98738.00
2023-02-11T19:42:46.261Z,98731.66
2023-02-11T19:45:13.189Z,98739.41
2023-02-11T19:47:40.124Z,98743.47
2023-02-11T19:50:07.780Z,98746.34
2023-02-11T19:52:37.076Z,98745.34
2023-02-11T19:55:04.165Z,98749.44
2023-02-11T19:57:31.106Z,98760.66
2023-02-11T19:59:58.156Z,98756.97
2023-02-11T20:02:25.124Z,98756.78
2023-02-11T20:04:52.410Z,98754.31
2023-02-11T20:07:19.354Z,98762.09
2023-02-11T20:09:46.307Z,98761.88
2023-02-11T20:12:13.840Z,98753.09
2023-02-11T20:14:41.358Z,98760.66
2023-02-11T20:17:08.367Z,98764.94
2023-02-11T20:19:35.334Z,98765.34
2023-02-11T20:22:02.317Z,98765.34
2023-02-11T20:24:29.326Z,98765.56
2023-02-11T20:26:56.585Z,98761.25
2023-02-11T20:29:24.507Z,98766.13
2023-02-11T20:31:51.533Z,98761.66
2023-02-11T20:34:18.852Z,98760.44
2023-02-11T20:36:51.991Z,98765.38
2023-02-11T20:39:21.897Z,98769.25
2023-02-11T20:41:49.063Z,98762.91
2023-02-11T20:44:16.081Z,98763.72
2023-02-11T20:46:45.941Z,98767.41
2023-02-11T20:49:19.048Z,98771.06
2023-02-11T20:51:46.210Z,98770.00
2023-02-11T20:54:17.966Z,98775.06
2023-02-11T20:56:47.844Z,98767.75
2023-02-11T20:59:16.472Z,98772.66
2023-02-11T21:01:45.797Z,98769.38
2023-02-11T21:04:15.329Z,98770.25
2023-02-11T21:06:44.766Z,98773.94
2023-02-11T21:09:16.571Z,98773.31
2023-02-11T21:11:43.609Z,98771.06
2023-02-11T21:14:11.145Z,98763.31
2023-02-11T21:16:38.290Z,98769.44
2023-02-11T21:19:05.441Z,98762.47
2023-02-11T21:21:32.445Z,98768.38
2023-02-11T21:23:59.392Z,98768.13
2023-02-11T21:26:26.485Z,98772.97
2023-02-11T21:28:55.163Z,98764.25
2023-02-11T21:31:27.630Z,98764.94
2023-02-11T21:33:55.460Z,98762.34
2023-02-11T21:36:23.238Z,98759.03
2023-02-11T21:38:50.218Z,98777.47
2023-02-11T21:41:17.939Z,98768.84
2023-02-11T21:43:45.070Z,98768.69
2023-02-11T21:46:13.242Z,98767.03
2023-02-11T21:48:40.222Z,98763.72
2023-02-11T21:51:08.766Z,98773.09
2023-02-11T21:53:35.763Z,98769.88
2023-02-11T21:56:14.116Z,98775.91
2023-02-11T21:58:41.158Z,98769.88
2023-02-11T22:01:12.037Z,98780.00
2023-02-11T22:03:39.251Z,98773.13
2023-02-11T22:06:10.253Z,98769.66
2023-02-11T22:08:37.779Z,98781.56
2023-02-11T22:11:05.689Z,98779.03
2023-02-11T22:13:32.877Z,98787.84
2023-02-11T22:16:05.327Z,98791.81
2023-02-11T22:18:32.424Z,98796.56
2023-02-11T22:21:18.699Z,98795.44
2023-02-11T22:23:45.847Z,98799.78
2023-02-11T22:26:15.320Z,98799.25
2023-02-11T22:28:42.694Z,98805.41
2023-02-11T22:31:20.722Z,98799.06
2023-02-11T22:33:47.843Z,98805.22
2023-02-11T22:36:19.987Z,98811.53
2023-02-11T22:38:47.067Z,98811.09
2023-02-11T22:41:14.212Z,98805.78
2023-02-11T22:43:42.154Z,98804.59
2023-02-11T22:46:09.566Z,98803.75
2023-02-11T22:48:36.613Z,98808.06
2023-02-11T22:51:27.311Z,98817.44
2023-02-11T22:53:55.982Z,98817.25
2023-02-11T22:56:23.110Z,98818.88
2023-02-11T22:58:50.311Z,98811.72
2023-02-11T23:01:17.577Z,98815.59
2023-02-11T23:03:44.653Z,98815.63
2023-02-11T23:06:11.649Z,98816.84
2023-02-11T23:08:39.792Z,98815.19
2023-02-11T23:11:12.142Z,98815.19
2023-02-11T23:13:40.032Z,98815.41
2023-02-11T23:16:08.699Z,98822.56
2023-02-11T23:18:38.930Z,98824.19
2023-02-11T23:21:16.576Z,98828.88
2023-02-11T23:23:43.729Z,98825.22
2023-02-11T23:26:11.769Z,98829.31
2023-02-11T23:28:39.480Z,98827.69
2023-02-11T23:31:26.547Z,98830.31
2023-02-11T23:33:53.633Z,98828.69
2023-02-11T23:36:20.975Z,98832.38
2023-02-11T23:38:48.088Z,98825.00
2023-02-11T23:41:15.277Z,98818.47
2023-02-11T23:43:42.397Z,98824.16
2023-02-11T23:46:09.512Z,98823.28
2023-02-11T23:48:37.941Z,98830.19
2023-02-11T23:51:05.160Z,98838.00
2023-02-11T23:53:32.116Z,98840.00
2023-02-11T23:55:59.105Z,98838.41
2023-02-11T23:58:26.044Z,98828.53
